createdAt,value
2023-02-28T00:00:11.107Z,5.90
2023-02-28T00:02:39.092Z,5.97
2023-02-28T00:05:09.613Z,5.55
2023-02-28T00:07:37.963Z,6.05
2023-02-28T00:10:09.463Z,5.97
2023-02-28T00:12:38.184Z,5.53
2023-02-28T00:15:08.712Z,6.05
2023-02-28T00:17:36.630Z,6.18
2023-02-28T00:20:09.183Z,5.88
2023-02-28T00:22:37.010Z,6.30
2023-02-28T00:25:10.499Z,5.93
2023-02-28T00:27:41.883Z,6.10
2023-02-28T00:30:12.530Z,6.10
2023-02-28T00:32:40.697Z,6.32
2023-02-28T00:35:09.589Z,6.03
2023-02-28T00:37:37.808Z,6.45
2023-02-28T00:40:07.263Z,6.50
2023-02-28T00:42:35.500Z,5.97
2023-02-28T00:45:06.096Z,5.90
2023-02-28T00:47:34.693Z,5.80
2023-02-28T00:50:07.254Z,6.20
2023-02-28T00:52:34.982Z,6.30
2023-02-28T00:55:02.684Z,6.80
2023-02-28T00:57:30.448Z,6.30
2023-02-28T00:59:59.907Z,6.57
2023-02-28T01:02:29.204Z,6.78
2023-02-28T01:04:57.783Z,6.65
2023-02-28T01:07:25.730Z,6.30
2023-02-28T01:09:53.478Z,6.30
2023-02-28T01:12:21.287Z,6.95
2023-02-28T01:14:49.026Z,6.60
2023-02-28T01:17:16.923Z,6.63
2023-02-28T01:19:46.052Z,6.38
2023-02-28T01:22:13.886Z,6.57
2023-02-28T01:24:41.635Z,7.00
2023-02-28T01:27:09.698Z,6.18
2023-02-28T01:29:37.424Z,6.68
2023-02-28T01:32:05.525Z,6.68
2023-02-28T01:34:33.241Z,6.70
2023-02-28T01:37:04.496Z,6.50
2023-02-28T01:39:32.364Z,6.93
2023-02-28T01:42:00.151Z,6.75
2023-02-28T01:44:57.666Z,7.20
2023-02-28T01:47:27.798Z,7.20
2023-02-28T01:49:56.076Z,7.22
2023-02-28T01:52:25.992Z,7.28
2023-02-28T01:54:57.881Z,7.15
2023-02-28T01:57:32.201Z,7.13
2023-02-28T02:00:03.111Z,7.13
2023-02-28T02:02:31.440Z,7.28
2023-02-28T02:05:03.045Z,7.68
2023-02-28T02:07:36.049Z,7.38
2023-02-28T02:10:07.418Z,7.68
2023-02-28T02:13:01.153Z,7.30
2023-02-28T02:15:34.174Z,6.85
2023-02-28T02:18:07.283Z,7.40
2023-02-28T02:20:53.372Z,7.60
2023-02-28T02:23:44.812Z,7.63
2023-02-28T02:26:53.126Z,7.25
2023-02-28T02:29:55.842Z,7.45
2023-02-28T02:32:51.536Z,7.95
2023-02-28T02:35:27.458Z,8.05
2023-02-28T02:38:01.237Z,7.70
2023-02-28T02:40:39.385Z,7.72
2023-02-28T02:43:13.426Z,7.40
2023-02-28T02:45:47.974Z,7.22
2023-02-28T02:48:21.399Z,5.88
2023-02-28T02:50:56.243Z,7.75
2023-02-28T02:53:27.204Z,7.47
2023-02-28T02:55:57.068Z,8.18
2023-02-28T02:58:31.917Z,7.60
2023-02-28T03:01:02.886Z,7.75
2023-02-28T03:03:33.704Z,7.55
2023-02-28T03:06:04.108Z,8.45
2023-02-28T03:08:38.054Z,7.45
2023-02-28T03:11:08.354Z,8.88
2023-02-28T03:13:49.841Z,7.63
2023-02-28T03:16:37.331Z,8.68
2023-02-28T03:19:24.095Z,8.75
2023-02-28T03:22:06.755Z,7.85
2023-02-28T03:24:42.174Z,8.65
2023-02-28T03:27:14.129Z,8.30
2023-02-28T03:29:47.892Z,8.20
2023-02-28T03:32:24.228Z,8.80
2023-02-28T03:35:04.711Z,8.18
2023-02-28T03:37:37.384Z,8.55
2023-02-28T03:40:10.042Z,8.55
2023-02-28T03:42:41.410Z,8.77
2023-02-28T03:45:18.957Z,9.25
2023-02-28T03:47:52.707Z,8.07
2023-02-28T03:50:24.609Z,9.55
2023-02-28T03:53:02.214Z,8.32
2023-02-28T03:55:34.275Z,9.43
2023-02-28T03:58:07.642Z,9.35
2023-02-28T04:00:38.066Z,9.63
2023-02-28T04:03:06.257Z,8.77
2023-02-28T04:05:34.413Z,9.02
2023-02-28T04:08:08.138Z,8.75
2023-02-28T04:10:36.275Z,9.60
2023-02-28T04:13:04.010Z,9.25
2023-02-28T04:15:35.256Z,8.95
2023-02-28T04:18:03.600Z,10.15
2023-02-28T04:20:31.289Z,9.32
2023-02-28T04:22:59.004Z,9.68
2023-02-28T04:25:28.123Z,9.77
2023-02-28T04:27:55.853Z,9.63
2023-02-28T04:30:25.711Z,10.15
2023-02-28T04:32:53.446Z,10.30
2023-02-28T04:35:21.245Z,10.13
2023-02-28T04:37:48.960Z,10.25
2023-02-28T04:40:18.719Z,11.32
2023-02-28T04:42:47.768Z,11.02
2023-02-28T04:45:15.570Z,11.85
2023-02-28T04:47:43.744Z,11.82
2023-02-28T04:50:12.110Z,11.57
2023-02-28T04:52:42.592Z,11.88
2023-02-28T04:55:11.313Z,12.77
2023-02-28T04:57:39.132Z,11.70
2023-02-28T05:00:12.521Z,12.77
2023-02-28T05:02:41.062Z,12.88
2023-02-28T05:05:09.051Z,13.07
2023-02-28T05:07:36.823Z,13.25
2023-02-28T05:10:06.437Z,12.95
2023-02-28T05:12:34.295Z,13.80
2023-02-28T05:15:03.299Z,14.20
2023-02-28T05:17:32.536Z,13.77
2023-02-28T05:20:13.408Z,14.07
2023-02-28T05:22:42.838Z,14.70
2023-02-28T05:25:15.988Z,13.77
2023-02-28T05:27:44.109Z,14.02
2023-02-28T05:30:12.907Z,14.82
2023-02-28T05:32:43.788Z,15.18
2023-02-28T05:35:19.326Z,14.07
2023-02-28T05:37:49.037Z,14.50
2023-02-28T05:40:21.288Z,15.00
2023-02-28T05:42:49.293Z,15.18
2023-02-28T05:45:18.038Z,15.07
2023-02-28T05:47:47.104Z,16.35
2023-02-28T05:50:14.945Z,17.42
2023-02-28T05:52:42.695Z,15.82
2023-02-28T05:55:11.144Z,16.08
2023-02-28T05:57:38.852Z,16.27
2023-02-28T06:00:07.943Z,17.08
2023-02-28T06:02:35.674Z,15.93
2023-02-28T06:05:04.799Z,15.93
2023-02-28T06:07:32.626Z,15.95
2023-02-28T06:10:00.296Z,16.65
2023-02-28T06:12:28.027Z,18.10
2023-02-28T06:14:55.892Z,17.50
2023-02-28T06:17:23.564Z,16.60
2023-02-28T06:19:51.819Z,16.58
2023-02-28T06:22:21.000Z,17.58
2023-02-28T06:24:48.891Z,16.80
2023-02-28T06:27:16.625Z,16.73
2023-02-28T06:29:44.306Z,16.95
2023-02-28T06:32:11.986Z,17.15
2023-02-28T06:34:39.671Z,18.02
2023-02-28T06:37:07.392Z,17.42
2023-02-28T06:39:36.505Z,17.55
2023-02-28T06:42:04.445Z,17.52
2023-02-28T06:44:36.300Z,18.00
2023-02-28T06:47:05.231Z,16.38
2023-02-28T06:49:33.264Z,19.23
2023-02-28T06:52:01.038Z,18.15
2023-02-28T06:54:29.215Z,18.13
2023-02-28T06:56:59.705Z,17.98
2023-02-28T06:59:27.649Z,18.40
2023-02-28T07:01:58.476Z,17.58
2023-02-28T07:04:27.108Z,17.60
2023-02-28T07:06:57.755Z,17.30
2023-02-28T07:09:31.066Z,17.48
2023-02-28T07:12:01.537Z,17.00
2023-02-28T07:14:29.434Z,17.15
2023-02-28T07:16:57.147Z,17.55
2023-02-28T07:19:24.813Z,18.17
2023-02-28T07:21:52.518Z,17.25
2023-02-28T07:24:22.213Z,17.48
2023-02-28T07:26:49.916Z,18.75
2023-02-28T07:29:19.029Z,17.55
2023-02-28T07:31:47.606Z,18.55
2023-02-28T07:34:15.796Z,18.67
2023-02-28T07:36:43.552Z,17.70
2023-02-28T07:39:11.506Z,17.98
2023-02-28T07:41:44.163Z,18.77
2023-02-28T07:44:13.903Z,17.77
2023-02-28T07:46:43.042Z,19.17
2023-02-28T07:49:12.543Z,19.58
2023-02-28T07:51:40.381Z,19.95
2023-02-28T07:54:08.737Z,18.98
2023-02-28T07:56:36.459Z,21.02
2023-02-28T07:59:04.281Z,21.75
2023-02-28T08:01:32.455Z,20.55
2023-02-28T08:04:02.166Z,19.30
2023-02-28T08:06:29.882Z,23.65
2023-02-28T08:08:57.966Z,21.42
2023-02-28T08:11:26.873Z,21.08
2023-02-28T08:13:54.593Z,19.55
2023-02-28T08:16:23.532Z,18.80
2023-02-28T08:18:51.954Z,19.52
2023-02-28T08:21:21.908Z,18.92
2023-02-28T08:23:50.496Z,29.15
2023-02-28T08:26:19.137Z,24.77
2023-02-28T08:28:47.890Z,20.80
2023-02-28T08:31:18.222Z,20.60
2023-02-28T08:33:46.710Z,29.13
2023-02-28T08:36:14.913Z,21.48
2023-02-28T08:38:44.341Z,21.33
2023-02-28T08:41:14.146Z,20.15
2023-02-28T08:43:42.700Z,22.50
2023-02-28T08:46:13.106Z,19.15
2023-02-28T08:48:41.066Z,19.08
2023-02-28T08:51:11.178Z,20.20
2023-02-28T08:53:40.269Z,18.17
2023-02-28T08:56:14.251Z,19.08
2023-02-28T08:58:42.787Z,18.45
2023-02-28T09:01:13.013Z,19.67
2023-02-28T09:03:42.449Z,19.85
2023-02-28T09:06:13.856Z,18.63
2023-02-28T09:08:41.662Z,18.98
2023-02-28T09:11:11.424Z,19.05
2023-02-28T09:13:40.616Z,18.15
2023-02-28T09:16:10.708Z,18.65
2023-02-28T09:18:39.268Z,18.02
2023-02-28T09:21:08.239Z,19.48
2023-02-28T09:23:38.978Z,19.38
2023-02-28T09:26:07.250Z,18.52
2023-02-28T09:28:39.281Z,18.67
2023-02-28T09:31:07.096Z,19.23
2023-02-28T09:33:37.730Z,19.75
2023-02-28T09:36:06.262Z,17.70
2023-02-28T09:38:34.004Z,18.15
2023-02-28T09:41:04.625Z,18.90
2023-02-28T09:43:37.692Z,18.25
2023-02-28T09:46:14.576Z,17.77
2023-02-28T09:48:47.809Z,18.55
2023-02-28T09:51:31.940Z,19.27
2023-02-28T09:54:01.957Z,18.58
2023-02-28T09:56:35.089Z,17.83
2023-02-28T09:59:07.808Z,18.65
2023-02-28T10:01:44.701Z,18.65
2023-02-28T10:04:18.876Z,17.93
2023-02-28T10:06:50.695Z,17.15
2023-02-28T10:09:21.702Z,18.15
2023-02-28T10:11:54.409Z,17.45
2023-02-28T10:14:26.476Z,19.00
2023-02-28T10:16:58.583Z,17.73
2023-02-28T10:19:33.498Z,19.02
2023-02-28T10:22:04.530Z,19.30
2023-02-28T10:24:36.346Z,19.23
2023-02-28T10:27:19.553Z,19.27
2023-02-28T10:29:50.134Z,19.15
2023-02-28T10:32:21.033Z,18.90
2023-02-28T10:34:54.560Z,18.27
2023-02-28T10:37:22.860Z,18.02
2023-02-28T10:39:50.647Z,17.65
2023-02-28T10:42:27.587Z,17.45
2023-02-28T10:45:12.557Z,17.90
2023-02-28T10:47:53.889Z,17.43
2023-02-28T10:50:36.895Z,17.05
2023-02-28T10:53:30.449Z,16.80
2023-02-28T10:56:00.136Z,17.58
2023-02-28T10:58:31.539Z,17.27
2023-02-28T11:01:00.467Z,17.58
2023-02-28T11:03:38.606Z,16.67
2023-02-28T11:06:09.883Z,17.15
2023-02-28T11:08:47.649Z,17.30
2023-02-28T11:11:16.626Z,17.67
2023-02-28T11:13:46.740Z,18.05
2023-02-28T11:16:16.327Z,18.02
2023-02-28T11:18:50.106Z,17.52
2023-02-28T11:21:23.037Z,18.08
2023-02-28T11:23:52.379Z,16.83
2023-02-28T11:26:42.175Z,18.58
2023-02-28T11:29:23.274Z,18.15
2023-02-28T11:32:14.764Z,18.15
2023-02-28T11:34:45.067Z,17.00
2023-02-28T11:37:16.641Z,17.98
2023-02-28T11:39:44.977Z,17.70
2023-02-28T11:42:45.871Z,18.02
2023-02-28T11:45:30.325Z,18.15
2023-02-28T11:48:06.631Z,18.88
2023-02-28T11:51:05.149Z,18.30
2023-02-28T11:56:08.587Z,18.10
2023-02-28T11:58:48.482Z,18.52
2023-02-28T12:01:39.277Z,18.30
2023-02-28T12:04:19.970Z,17.45
2023-02-28T12:06:54.317Z,17.80
2023-02-28T12:09:35.944Z,18.15
2023-02-28T12:12:15.680Z,18.50
2023-02-28T12:14:57.386Z,17.90
2023-02-28T12:17:37.426Z,17.92
2023-02-28T12:20:18.566Z,18.38
2023-02-28T12:22:57.334Z,18.10
2023-02-28T12:25:52.300Z,18.10
2023-02-28T12:28:28.196Z,17.63
2023-02-28T12:31:03.479Z,17.02
2023-02-28T12:33:37.977Z,17.65
2023-02-28T12:36:12.908Z,16.48
2023-02-28T12:38:45.805Z,16.83
2023-02-28T12:41:17.393Z,18.27
2023-02-28T12:43:50.259Z,17.60
2023-02-28T12:46:23.612Z,17.40
2023-02-28T12:48:56.525Z,17.50
2023-02-28T12:51:27.966Z,17.58
2023-02-28T12:54:08.948Z,17.60
2023-02-28T12:56:44.229Z,17.48
2023-02-28T12:59:16.942Z,17.20
2023-02-28T13:02:01.876Z,17.42
2023-02-28T13:04:58.760Z,16.80
2023-02-28T13:07:55.856Z,17.35
2023-02-28T13:10:26.171Z,16.33
2023-02-28T13:12:55.990Z,16.67
2023-02-28T13:15:29.288Z,17.08
2023-02-28T13:18:00.124Z,17.33
2023-02-28T13:20:36.909Z,17.77
2023-02-28T13:23:06.389Z,15.60
2023-02-28T13:25:56.612Z,16.58
2023-02-28T13:28:59.909Z,15.75
2023-02-28T13:31:29.083Z,15.85
2023-02-28T13:34:17.688Z,16.80
2023-02-28T13:36:45.497Z,17.67
2023-02-28T13:39:49.839Z,19.27
2023-02-28T13:42:38.334Z,17.80
2023-02-28T13:45:25.577Z,17.00
2023-02-28T13:48:02.440Z,17.40
2023-02-28T13:50:34.123Z,18.17
2023-02-28T13:53:39.535Z,18.00
2023-02-28T13:56:20.043Z,18.45
2023-02-28T13:58:56.745Z,17.60
2023-02-28T14:01:36.832Z,18.58
2023-02-28T14:04:37.495Z,19.52
2023-02-28T14:07:06.416Z,22.88
2023-02-28T14:09:37.745Z,18.35
2023-02-28T14:12:42.724Z,18.00
2023-02-28T14:15:33.009Z,20.23
2023-02-28T14:18:03.530Z,18.85
2023-02-28T14:20:35.506Z,19.20
2023-02-28T14:23:14.521Z,21.80
2023-02-28T14:25:51.142Z,19.73
2023-02-28T14:28:33.749Z,19.15
2023-02-28T14:31:10.661Z,18.63
2023-02-28T14:33:57.081Z,20.40
2023-02-28T14:36:29.738Z,18.55
2023-02-28T14:39:00.030Z,16.42
2023-02-28T14:41:32.646Z,16.55
2023-02-28T14:44:02.359Z,16.63
2023-02-28T14:46:39.003Z,17.50
2023-02-28T14:49:08.346Z,17.63
2023-02-28T14:51:36.914Z,17.80
2023-02-28T14:54:05.775Z,17.90
2023-02-28T14:56:37.815Z,17.85
2023-02-28T14:59:08.190Z,17.13
2023-02-28T15:01:37.394Z,18.35
2023-02-28T15:04:07.711Z,17.83
2023-02-28T15:06:35.657Z,18.17
2023-02-28T15:09:15.990Z,16.65
2023-02-28T15:11:47.339Z,20.00
2023-02-28T15:14:22.033Z,18.95
2023-02-28T15:16:58.455Z,18.15
2023-02-28T15:19:30.476Z,16.70
2023-02-28T15:22:02.110Z,17.95
2023-02-28T15:24:38.725Z,18.15
2023-02-28T15:27:08.966Z,18.48
2023-02-28T15:29:47.238Z,17.33
2023-02-28T15:32:27.979Z,17.67
2023-02-28T15:34:56.201Z,17.50
2023-02-28T15:37:41.276Z,17.42
2023-02-28T15:40:18.643Z,18.67
2023-02-28T15:43:00.737Z,18.35
2023-02-28T15:45:30.648Z,17.05
2023-02-28T15:48:12.297Z,15.30
2023-02-28T15:50:41.702Z,14.48
2023-02-28T15:53:15.732Z,14.73
2023-02-28T15:55:43.657Z,14.95
2023-02-28T15:58:14.469Z,14.75
2023-02-28T16:00:50.430Z,16.15
2023-02-28T16:03:39.472Z,16.58
2023-02-28T16:06:29.596Z,16.58
2023-02-28T16:08:57.349Z,17.52
2023-02-28T16:11:25.356Z,16.55
2023-02-28T16:13:54.461Z,16.88
2023-02-28T16:16:25.164Z,16.60
2023-02-28T16:18:54.664Z,17.35
2023-02-28T16:21:22.585Z,17.38
2023-02-28T16:23:50.424Z,17.42
2023-02-28T16:26:25.092Z,17.27
2023-02-28T16:28:53.937Z,17.58
2023-02-28T16:31:22.443Z,16.13
2023-02-28T16:33:50.159Z,17.20
2023-02-28T16:36:23.200Z,17.83
2023-02-28T16:38:51.433Z,16.83
2023-02-28T16:41:21.095Z,15.68
2023-02-28T16:43:50.883Z,16.98
2023-02-28T16:46:19.675Z,16.35
2023-02-28T16:48:49.594Z,17.75
2023-02-28T16:51:19.614Z,16.77
2023-02-28T16:53:47.801Z,16.67
2023-02-28T16:56:19.288Z,16.20
2023-02-28T16:58:50.708Z,16.98
2023-02-28T17:01:22.752Z,16.58
2023-02-28T17:03:51.155Z,15.90
2023-02-28T17:06:23.045Z,16.52
2023-02-28T17:08:51.229Z,16.70
2023-02-28T17:11:19.625Z,16.60
2023-02-28T17:13:47.757Z,16.92
2023-02-28T17:16:22.667Z,17.88
2023-02-28T17:18:51.928Z,16.60
2023-02-28T17:21:21.108Z,18.05
2023-02-28T17:23:48.980Z,17.67
2023-02-28T17:26:20.895Z,16.98
2023-02-28T17:28:48.787Z,17.15
2023-02-28T17:31:17.022Z,17.20
2023-02-28T17:33:44.916Z,17.42
2023-02-28T17:36:16.331Z,18.55
2023-02-28T17:38:45.812Z,18.52
2023-02-28T17:41:13.730Z,18.60
2023-02-28T17:43:41.904Z,20.63
2023-02-28T17:46:19.306Z,20.63
2023-02-28T17:48:47.086Z,20.05
2023-02-28T17:51:16.082Z,19.80
2023-02-28T17:53:45.363Z,19.10
2023-02-28T17:56:15.745Z,19.70
2023-02-28T17:58:43.812Z,18.83
2023-02-28T18:01:12.977Z,18.05
2023-02-28T18:03:41.400Z,18.60
2023-02-28T18:06:14.049Z,21.38
2023-02-28T18:08:42.401Z,19.90
2023-02-28T18:11:18.047Z,21.92
2023-02-28T18:13:47.710Z,31.77
2023-02-28T18:16:19.208Z,20.15
2023-02-28T18:18:47.387Z,20.20
2023-02-28T18:21:17.130Z,20.45
2023-02-28T18:23:48.689Z,20.98
2023-02-28T18:26:19.899Z,21.27
2023-02-28T18:28:48.898Z,21.40
2023-02-28T18:31:18.791Z,22.85
2023-02-28T18:33:50.274Z,21.98
2023-02-28T18:36:18.891Z,22.73
2023-02-28T18:38:46.948Z,23.95
2023-02-28T18:41:14.885Z,25.60
2023-02-28T18:43:44.381Z,24.98
2023-02-28T18:46:14.936Z,24.70
2023-02-28T18:48:42.741Z,24.08
2023-02-28T18:51:11.780Z,23.48
2023-02-28T18:53:41.463Z,21.05
2023-02-28T18:56:13.009Z,20.42
2023-02-28T18:58:41.902Z,19.42
2023-02-28T19:01:18.509Z,22.65
2023-02-28T19:03:46.896Z,20.38
2023-02-28T19:06:15.115Z,21.25
2023-02-28T19:08:42.910Z,20.30
2023-02-28T19:11:11.520Z,21.30
2023-02-28T19:13:39.467Z,20.38
2023-02-28T19:16:10.040Z,20.92
2023-02-28T19:18:39.454Z,21.63
2023-02-28T19:21:08.301Z,21.08
2023-02-28T19:23:36.098Z,20.63
2023-02-28T19:26:11.125Z,19.70
2023-02-28T19:28:39.695Z,21.83
2023-02-28T19:31:13.477Z,22.13
2023-02-28T19:33:43.155Z,22.27
2023-02-28T19:36:12.641Z,22.48
2023-02-28T19:38:40.994Z,23.55
2023-02-28T19:41:11.324Z,22.92
2023-02-28T19:43:39.680Z,22.70
2023-02-28T19:46:09.488Z,20.92
2023-02-28T19:48:40.048Z,21.35
2023-02-28T19:51:12.058Z,21.15
2023-02-28T19:53:41.614Z,22.05
2023-02-28T19:56:10.549Z,21.08
2023-02-28T19:58:39.238Z,21.58
2023-02-28T20:01:11.976Z,23.33
2023-02-28T20:03:39.942Z,24.88
2023-02-28T20:06:11.548Z,24.85
2023-02-28T20:08:40.834Z,23.88
2023-02-28T20:11:10.843Z,28.40
2023-02-28T20:13:38.960Z,28.88
2023-02-28T20:16:09.586Z,25.30
2023-02-28T20:18:38.605Z,24.52
2023-02-28T20:21:08.726Z,24.98
2023-02-28T20:23:38.852Z,24.45
2023-02-28T20:26:07.601Z,23.65
2023-02-28T20:28:35.435Z,24.00
2023-02-28T20:31:03.609Z,23.15
2023-02-28T20:33:31.509Z,22.77
2023-02-28T20:36:00.887Z,23.80
2023-02-28T20:38:30.917Z,24.00
2023-02-28T20:41:02.232Z,23.13
2023-02-28T20:43:31.140Z,22.85
2023-02-28T20:46:01.856Z,22.70
2023-02-28T20:48:30.835Z,23.17
2023-02-28T20:51:00.445Z,23.30
2023-02-28T20:53:29.316Z,24.15
2023-02-28T20:55:58.196Z,22.90
2023-02-28T20:58:29.922Z,23.15
2023-02-28T21:01:01.977Z,24.73
2023-02-28T21:03:30.213Z,24.00
2023-02-28T21:06:02.656Z,24.40
2023-02-28T21:08:31.553Z,24.05
2023-02-28T21:10:59.879Z,23.70
2023-02-28T21:13:29.472Z,24.08
2023-02-28T21:15:58.245Z,25.00
2023-02-28T21:18:26.684Z,23.98
2023-02-28T21:20:55.177Z,22.13
2023-02-28T21:23:23.473Z,23.45
2023-02-28T21:25:52.021Z,21.75
2023-02-28T21:28:20.309Z,22.35
2023-02-28T21:30:50.325Z,23.00
2023-02-28T21:33:19.327Z,22.45
2023-02-28T21:35:47.564Z,23.02
2023-02-28T21:38:15.315Z,22.55
2023-02-28T21:40:43.165Z,23.02
2023-02-28T21:43:10.945Z,22.27
2023-02-28T21:45:38.786Z,21.92
2023-02-28T21:48:07.991Z,22.50
2023-02-28T21:50:38.314Z,21.45
2023-02-28T21:53:06.080Z,21.20
2023-02-28T21:55:35.548Z,20.83
2023-02-28T21:58:03.852Z,20.23
2023-02-28T22:00:31.753Z,21.17
2023-02-28T22:03:03.555Z,21.65
2023-02-28T22:05:32.721Z,22.42
2023-02-28T22:08:00.548Z,22.08
2023-02-28T22:10:28.333Z,20.42
2023-02-28T22:12:56.127Z,20.73
2023-02-28T22:15:24.236Z,21.35
2023-02-28T22:17:52.303Z,20.83
2023-02-28T22:20:21.872Z,20.83
2023-02-28T22:22:51.074Z,23.40
2023-02-28T22:25:19.031Z,21.58
2023-02-28T22:27:46.806Z,21.10
2023-02-28T22:30:15.644Z,21.60
2023-02-28T22:32:43.376Z,21.50
2023-02-28T22:35:11.516Z,22.25
2023-02-28T22:37:39.363Z,21.60
2023-02-28T22:40:11.187Z,21.73
2023-02-28T22:42:38.886Z,20.73
2023-02-28T22:45:07.360Z,22.77
2023-02-28T22:47:35.179Z,22.08
2023-02-28T22:50:02.912Z,21.88
2023-02-28T22:52:30.623Z,22.67
2023-02-28T23:00:38.548Z,22.60
2023-02-28T23:03:06.299Z,20.33
2023-02-28T23:05:34.046Z,22.05
2023-02-28T23:08:01.804Z,22.42
2023-02-28T23:10:29.544Z,22.63
2023-02-28T23:12:57.276Z,22.63
2023-02-28T23:15:25.063Z,23.45
2023-02-28T23:17:54.345Z,21.38
2023-02-28T23:20:22.898Z,21.83
2023-02-28T23:22:51.459Z,22.48
2023-02-28T23:25:20.547Z,21.88
2023-02-28T23:27:49.214Z,22.92
2023-02-28T23:30:17.617Z,22.48
2023-02-28T23:32:45.469Z,22.77
2023-02-28T23:35:14.731Z,23.13
2023-02-28T23:37:42.425Z,23.52
2023-02-28T23:40:12.946Z,22.83
2023-02-28T23:42:40.993Z,22.52
2023-02-28T23:45:10.201Z,23.00
2023-02-28T23:47:37.930Z,22.98
2023-02-28T23:50:06.534Z,22.48
2023-02-28T23:52:35.702Z,22.55
2023-02-28T23:55:03.614Z,22.27
2023-02-28T23:57:31.376Z,22.90
2023-02-28T23:59:59.145Z,22.77
